createdAt,value
2018-01-23T00:01:54.433Z,1.20
2018-01-23T00:04:20.230Z,1.19
2018-01-23T00:06:45.987Z,1.20
2018-01-23T00:09:11.728Z,1.16
2018-01-23T00:11:37.491Z,1.17
2018-01-23T00:14:03.243Z,1.18
2018-01-23T00:16:29.016Z,1.13
2018-01-23T00:18:54.775Z,1.15
2018-01-23T00:21:20.544Z,1.17
2018-01-23T00:23:46.294Z,1.21
2018-01-23T00:26:12.059Z,1.19
2018-01-23T00:28:37.819Z,1.16
2018-01-23T00:31:03.584Z,1.15
2018-01-23T00:33:29.330Z,1.16
2018-01-23T00:35:55.079Z,1.16
2018-01-23T00:38:20.826Z,1.21
2018-01-23T00:40:46.567Z,1.19
2018-01-23T00:43:12.322Z,1.19
2018-01-23T00:45:38.067Z,1.21
2018-01-23T00:48:03.813Z,1.29
2018-01-23T00:50:29.547Z,1.25
2018-01-23T00:52:55.295Z,1.27
2018-01-23T00:55:21.071Z,1.23
2018-01-23T00:57:46.850Z,1.23
2018-01-23T01:00:12.607Z,1.24
2018-01-23T01:02:38.388Z,1.24
2018-01-23T01:05:04.160Z,1.21
2018-01-23T01:07:29.944Z,1.20
2018-01-23T01:09:55.707Z,1.19
2018-01-23T01:12:21.496Z,1.19
2018-01-23T01:14:47.238Z,1.21
2018-01-23T01:17:13.002Z,1.22
2018-01-23T01:19:38.752Z,1.22
2018-01-23T01:22:04.530Z,1.21
2018-01-23T01:24:30.291Z,1.20
2018-01-23T01:26:56.071Z,1.17
2018-01-23T01:29:21.830Z,1.20
2018-01-23T01:31:47.597Z,1.17
2018-01-23T01:34:13.358Z,1.19
2018-01-23T01:36:39.123Z,1.22
2018-01-23T01:39:04.907Z,1.23
2018-01-23T01:41:30.673Z,1.22
2018-01-23T01:43:56.451Z,1.24
2018-01-23T01:46:22.199Z,1.24
2018-01-23T01:48:51.955Z,1.21
2018-01-23T01:51:17.735Z,1.22
2018-01-23T01:53:43.508Z,1.22
2018-01-23T01:56:09.266Z,1.22
2018-01-23T01:58:35.049Z,1.20
2018-01-23T02:01:00.804Z,1.22
2018-01-23T02:03:26.595Z,1.21
2018-01-23T02:05:52.334Z,1.23
2018-01-23T02:08:18.098Z,1.23
2018-01-23T02:10:43.873Z,1.22
2018-01-23T02:13:09.638Z,1.23
2018-01-23T02:15:35.399Z,1.23
2018-01-23T02:18:01.171Z,1.20
2018-01-23T02:20:26.931Z,1.23
2018-01-23T02:22:52.711Z,1.23
2018-01-23T02:25:18.474Z,1.24
2018-01-23T02:27:44.235Z,1.23
2018-01-23T02:30:10.015Z,1.25
2018-01-23T02:32:35.779Z,1.24
2018-01-23T02:35:01.552Z,1.25
2018-01-23T02:37:27.312Z,1.27
2018-01-23T02:39:53.100Z,1.26
2018-01-23T02:42:18.874Z,1.28
2018-01-23T02:44:44.635Z,1.25
2018-01-23T02:47:10.407Z,1.25
2018-01-23T02:49:36.205Z,1.28
2018-01-23T02:52:01.953Z,1.29
2018-01-23T02:54:27.718Z,1.26
2018-01-23T02:56:53.491Z,1.28
2018-01-23T02:59:19.271Z,1.27
2018-01-23T03:01:45.038Z,1.27
2018-01-23T03:04:10.788Z,1.27
2018-01-23T03:06:36.567Z,1.30
2018-01-23T03:09:02.334Z,1.30
2018-01-23T03:11:28.087Z,1.30
2018-01-23T03:13:53.863Z,1.29
2018-01-23T03:16:19.671Z,1.31
2018-01-23T03:18:45.418Z,1.29
2018-01-23T03:21:11.179Z,1.32
2018-01-23T03:23:36.939Z,1.30
2018-01-23T03:26:02.715Z,1.31
2018-01-23T03:28:28.472Z,1.35
2018-01-23T03:30:54.256Z,1.33
2018-01-23T03:33:20.062Z,1.33
2018-01-23T03:35:45.830Z,1.32
2018-01-23T03:38:11.572Z,1.32
2018-01-23T03:40:37.344Z,1.32
2018-01-23T03:43:03.083Z,1.34
2018-01-23T03:45:28.855Z,1.31
2018-01-23T03:47:54.615Z,1.34
2018-01-23T03:50:20.382Z,1.33
2018-01-23T03:52:46.134Z,1.32
2018-01-23T03:55:11.900Z,1.33
2018-01-23T03:57:37.643Z,1.32
2018-01-23T04:00:03.410Z,1.33
2018-01-23T04:02:29.151Z,1.36
2018-01-23T04:04:54.892Z,1.39
2018-01-23T04:07:20.663Z,1.41
2018-01-23T04:09:50.439Z,1.39
2018-01-23T04:12:16.208Z,1.38
2018-01-23T04:14:41.952Z,1.37
2018-01-23T04:17:07.722Z,1.33
2018-01-23T04:19:33.480Z,1.34
2018-01-23T04:21:59.244Z,1.35
2018-01-23T04:24:25.002Z,1.36
2018-01-23T04:26:50.780Z,1.38
2018-01-23T04:29:16.535Z,1.38
2018-01-23T04:31:42.299Z,1.40
2018-01-23T04:34:08.088Z,1.41
2018-01-23T04:36:33.846Z,1.42
2018-01-23T04:38:59.590Z,1.42
2018-01-23T04:41:25.347Z,1.42
2018-01-23T04:43:51.090Z,1.43
2018-01-23T04:46:16.863Z,1.44
2018-01-23T04:48:42.611Z,1.45
2018-01-23T04:51:08.369Z,1.45
2018-01-23T04:53:34.138Z,1.50
2018-01-23T04:55:59.909Z,1.59
2018-01-23T04:58:25.654Z,1.48
2018-01-23T05:00:51.416Z,1.46
2018-01-23T05:03:17.198Z,1.46
2018-01-23T05:05:42.949Z,1.46
2018-01-23T05:08:08.707Z,1.46
2018-01-23T05:10:34.462Z,1.46
2018-01-23T05:13:00.231Z,1.48
2018-01-23T05:15:25.979Z,1.49
2018-01-23T05:17:51.730Z,1.50
2018-01-23T05:20:17.480Z,1.52
2018-01-23T05:22:43.231Z,1.53
2018-01-23T05:25:08.975Z,1.53
2018-01-23T05:27:34.719Z,1.51
2018-01-23T05:30:00.455Z,1.52
2018-01-23T05:32:26.219Z,1.53
2018-01-23T05:34:51.968Z,1.55
2018-01-23T05:37:17.754Z,1.54
2018-01-23T05:39:43.487Z,1.53
2018-01-23T05:42:09.232Z,1.55
2018-01-23T05:44:34.998Z,1.57
2018-01-23T05:47:00.755Z,1.59
2018-01-23T05:49:26.519Z,1.59
2018-01-23T05:51:52.270Z,1.58
2018-01-23T05:54:18.018Z,1.56
2018-01-23T05:56:43.791Z,1.59
2018-01-23T05:59:09.543Z,1.61
2018-01-23T06:01:35.315Z,1.59
2018-01-23T06:04:01.127Z,1.60
2018-01-23T06:06:26.885Z,1.60
2018-01-23T06:08:52.663Z,1.61
2018-01-23T06:11:18.420Z,1.61
2018-01-23T06:13:44.192Z,1.62
2018-01-23T06:16:09.938Z,1.63
2018-01-23T06:18:35.701Z,1.63
2018-01-23T06:21:01.461Z,1.65
2018-01-23T06:23:27.213Z,1.65
2018-01-23T06:25:52.972Z,1.66
2018-01-23T06:28:18.731Z,1.68
2018-01-23T06:30:44.491Z,1.68
2018-01-23T06:33:10.263Z,1.74
2018-01-23T06:35:36.044Z,1.72
2018-01-23T06:38:01.796Z,1.70
2018-01-23T06:40:27.580Z,1.68
2018-01-23T06:42:53.319Z,1.69
2018-01-23T06:45:19.100Z,1.70
2018-01-23T06:47:44.862Z,1.71
2018-01-23T06:50:10.633Z,1.71
2018-01-23T06:52:36.394Z,1.72
2018-01-23T06:55:02.175Z,1.73
2018-01-23T06:57:27.924Z,1.75
2018-01-23T06:59:53.705Z,1.76
2018-01-23T07:02:19.458Z,1.77
2018-01-23T07:04:45.198Z,1.78
2018-01-23T07:07:10.956Z,1.79
2018-01-23T07:09:36.712Z,1.83
2018-01-23T07:12:02.483Z,1.79
2018-01-23T07:14:28.241Z,1.80
2018-01-23T07:16:54.015Z,1.86
2018-01-23T07:19:19.785Z,1.93
2018-01-23T07:21:45.551Z,1.89
2018-01-23T07:24:11.308Z,1.88
2018-01-23T07:26:37.083Z,1.89
2018-01-23T07:29:02.836Z,1.96
2018-01-23T07:31:28.622Z,1.99
2018-01-23T07:33:54.371Z,1.96
2018-01-23T07:36:20.142Z,1.89
2018-01-23T07:38:45.891Z,1.95
2018-01-23T07:41:11.654Z,1.98
2018-01-23T07:43:37.427Z,1.95
2018-01-23T07:46:03.196Z,1.93
2018-01-23T07:48:28.955Z,1.93
2018-01-23T07:50:54.703Z,1.96
2018-01-23T07:53:20.495Z,2.01
2018-01-23T07:55:46.248Z,2.06
2018-01-23T07:58:12.010Z,2.13
2018-01-23T08:00:37.751Z,2.11
2018-01-23T08:03:03.512Z,2.14
2018-01-23T08:05:29.260Z,2.18
2018-01-23T08:07:55.020Z,2.21
2018-01-23T08:10:20.788Z,2.26
2018-01-23T08:12:46.523Z,2.27
2018-01-23T08:15:12.275Z,2.28
2018-01-23T08:17:38.035Z,2.33
2018-01-23T08:20:03.778Z,2.38
2018-01-23T08:22:29.523Z,2.37
2018-01-23T08:24:55.259Z,2.40
2018-01-23T08:27:21.007Z,2.42
2018-01-23T08:29:53.711Z,2.44
2018-01-23T08:32:19.455Z,2.51
2018-01-23T08:34:45.200Z,2.54
2018-01-23T08:37:10.943Z,2.59
2018-01-23T08:39:36.683Z,2.62
2018-01-23T08:42:02.506Z,2.64
2018-01-23T08:44:28.255Z,2.66
2018-01-23T08:46:54.010Z,2.72
2018-01-23T08:49:19.783Z,2.77
2018-01-23T08:51:45.526Z,2.77
2018-01-23T08:54:11.287Z,2.81
2018-01-23T08:56:37.048Z,2.89
2018-01-23T08:59:02.811Z,2.92
2018-01-23T09:01:28.571Z,2.98
2018-01-23T09:03:54.349Z,3.02
2018-01-23T09:06:20.108Z,3.04
2018-01-23T09:08:45.883Z,3.07
2018-01-23T09:11:11.627Z,3.14
2018-01-23T09:13:37.388Z,3.15
2018-01-23T09:16:03.160Z,3.21
2018-01-23T09:18:28.910Z,3.24
2018-01-23T09:20:54.651Z,3.32
2018-01-23T09:23:20.424Z,3.33
2018-01-23T09:25:46.167Z,3.37
2018-01-23T09:28:11.907Z,3.41
2018-01-23T09:30:37.667Z,3.53
2018-01-23T09:33:03.424Z,3.58
2018-01-23T09:35:29.244Z,3.67
2018-01-23T09:37:54.966Z,3.71
2018-01-23T09:40:20.734Z,3.80
2018-01-23T09:42:46.512Z,3.88
2018-01-23T09:45:12.275Z,3.90
2018-01-23T09:47:38.036Z,3.94
2018-01-23T09:50:03.807Z,4.00
2018-01-23T09:52:29.570Z,4.09
2018-01-23T09:54:55.353Z,4.15
2018-01-23T09:57:21.116Z,4.24
2018-01-23T09:59:46.875Z,4.30
2018-01-23T10:02:12.637Z,4.40
2018-01-23T10:04:38.387Z,4.45
2018-01-23T10:07:04.154Z,4.49
2018-01-23T10:09:29.915Z,4.55
2018-01-23T10:11:55.674Z,4.56
2018-01-23T10:14:21.415Z,4.56
2018-01-23T10:16:47.167Z,4.59
2018-01-23T10:19:12.915Z,4.63
2018-01-23T10:21:38.692Z,4.67
2018-01-23T10:24:04.472Z,4.71
2018-01-23T10:26:30.235Z,4.77
2018-01-23T10:28:55.970Z,4.76
2018-01-23T10:31:21.727Z,4.86
2018-01-23T10:33:47.474Z,4.89
2018-01-23T10:36:13.216Z,4.94
2018-01-23T10:38:38.987Z,4.95
2018-01-23T10:41:04.741Z,4.97
2018-01-23T10:43:30.478Z,5.03
2018-01-23T10:45:56.218Z,5.03
2018-01-23T10:48:21.975Z,5.03
2018-01-23T10:50:47.719Z,5.01
2018-01-23T10:53:13.476Z,5.06
2018-01-23T10:55:39.239Z,5.09
2018-01-23T10:58:04.996Z,5.12
2018-01-23T11:00:30.767Z,5.15
2018-01-23T11:02:56.539Z,5.16
2018-01-23T11:05:22.303Z,5.18
2018-01-23T11:07:48.071Z,5.22
2018-01-23T11:10:13.828Z,5.27
2018-01-23T11:12:39.599Z,5.31
2018-01-23T11:15:05.347Z,5.32
2018-01-23T11:17:31.100Z,5.33
2018-01-23T11:19:56.869Z,5.36
2018-01-23T11:22:22.647Z,5.34
2018-01-23T11:24:48.388Z,5.36
2018-01-23T11:27:14.139Z,5.37
2018-01-23T11:29:39.892Z,5.37
2018-01-23T11:32:05.631Z,5.37
2018-01-23T11:34:31.383Z,5.37
2018-01-23T11:36:57.131Z,5.36
2018-01-23T11:39:22.888Z,5.36
2018-01-23T11:41:48.638Z,5.36
2018-01-23T11:44:14.398Z,5.39
2018-01-23T11:46:40.147Z,5.40
2018-01-23T11:49:05.905Z,5.40
2018-01-23T11:51:31.701Z,5.39
2018-01-23T11:53:57.439Z,5.42
2018-01-23T11:56:23.216Z,5.38
2018-01-23T11:58:48.978Z,5.46
2018-01-23T12:01:14.745Z,5.48
2018-01-23T12:03:40.541Z,5.52
2018-01-23T12:06:06.300Z,5.57
2018-01-23T12:08:32.052Z,5.60
2018-01-23T12:10:57.828Z,5.63
2018-01-23T12:13:23.584Z,5.69
2018-01-23T12:15:49.342Z,5.73
2018-01-23T12:18:15.103Z,5.78
2018-01-23T12:20:40.887Z,5.78
2018-01-23T12:23:06.648Z,5.83
2018-01-23T12:25:32.419Z,5.88
2018-01-23T12:27:58.219Z,5.98
2018-01-23T12:30:23.980Z,6.01
2018-01-23T12:32:49.726Z,6.09
2018-01-23T12:35:15.491Z,6.17
2018-01-23T12:37:41.248Z,6.21
2018-01-23T12:40:07.015Z,6.21
2018-01-23T12:42:32.775Z,6.31
2018-01-23T12:44:58.558Z,6.25
2018-01-23T12:47:24.319Z,6.24
2018-01-23T12:49:50.063Z,6.30
2018-01-23T12:52:15.818Z,6.32
2018-01-23T12:54:41.567Z,6.37
2018-01-23T12:57:07.355Z,6.40
2018-01-23T12:59:33.116Z,6.43
2018-01-23T13:01:58.894Z,6.48
2018-01-23T13:04:24.663Z,6.41
2018-01-23T13:06:50.432Z,6.45
2018-01-23T13:09:16.188Z,6.47
2018-01-23T13:11:41.951Z,6.41
2018-01-23T13:14:07.707Z,6.43
2018-01-23T13:16:33.460Z,6.35
2018-01-23T13:18:59.209Z,6.45
2018-01-23T13:21:24.967Z,6.42
2018-01-23T13:23:50.728Z,6.48
2018-01-23T13:26:16.478Z,6.47
2018-01-23T13:28:42.247Z,6.51
2018-01-23T13:31:08.000Z,6.55
2018-01-23T13:33:33.767Z,6.51
2018-01-23T13:35:59.526Z,6.50
2018-01-23T13:38:25.287Z,6.43
2018-01-23T13:40:51.050Z,6.40
2018-01-23T13:43:16.810Z,6.35
2018-01-23T13:45:42.575Z,6.34
2018-01-23T13:48:08.335Z,6.34
2018-01-23T13:50:34.091Z,6.33
2018-01-23T13:52:59.847Z,6.35
2018-01-23T13:55:25.620Z,6.39
2018-01-23T13:57:51.397Z,6.42
2018-01-23T14:00:17.151Z,6.44
2018-01-23T14:02:42.915Z,6.43
2018-01-23T14:05:08.665Z,6.45
2018-01-23T14:07:34.426Z,6.45
2018-01-23T14:10:00.198Z,6.44
2018-01-23T14:12:25.958Z,6.46
2018-01-23T14:14:51.715Z,6.47
2018-01-23T14:17:17.467Z,6.49
2018-01-23T14:19:43.231Z,6.50
2018-01-23T14:22:08.987Z,6.52
2018-01-23T14:24:34.747Z,6.50
2018-01-23T14:27:00.502Z,6.48
2018-01-23T14:29:26.259Z,6.47
2018-01-23T14:31:52.002Z,6.48
2018-01-23T14:34:17.763Z,6.48
2018-01-23T14:36:43.524Z,6.47
2018-01-23T14:39:09.303Z,6.45
2018-01-23T14:41:35.052Z,6.45
2018-01-23T14:44:00.815Z,6.42
2018-01-23T14:46:26.587Z,6.44
2018-01-23T14:48:52.396Z,6.44
2018-01-23T14:51:18.143Z,6.44
2018-01-23T14:53:43.894Z,6.42
2018-01-23T14:56:09.657Z,6.40
2018-01-23T14:58:35.419Z,6.41
2018-01-23T15:01:01.183Z,6.43
2018-01-23T15:03:26.939Z,6.41
2018-01-23T15:05:52.709Z,6.37
2018-01-23T15:08:18.471Z,6.36
2018-01-23T15:10:44.229Z,6.35
2018-01-23T15:13:09.962Z,6.35
2018-01-23T15:15:35.719Z,6.37
2018-01-23T15:18:01.454Z,6.36
2018-01-23T15:20:27.221Z,6.39
2018-01-23T15:22:52.966Z,6.39
2018-01-23T15:25:18.723Z,6.34
2018-01-23T15:27:44.467Z,6.37
2018-01-23T15:30:10.226Z,6.34
2018-01-23T15:32:35.975Z,6.34
2018-01-23T15:35:01.722Z,6.27
2018-01-23T15:37:27.475Z,6.27
2018-01-23T15:39:53.219Z,6.31
2018-01-23T15:42:18.969Z,6.32
2018-01-23T15:44:44.746Z,6.36
2018-01-23T15:47:10.507Z,6.43
2018-01-23T15:49:36.266Z,6.47
2018-01-23T15:52:02.033Z,6.44
2018-01-23T15:54:27.783Z,6.46
2018-01-23T15:56:53.555Z,6.48
2018-01-23T15:59:19.307Z,6.43
2018-01-23T16:01:45.055Z,6.45
2018-01-23T16:04:10.794Z,6.41
2018-01-23T16:06:36.572Z,6.39
2018-01-23T16:09:02.333Z,6.42
2018-01-23T16:11:28.085Z,6.38
2018-01-23T16:13:53.833Z,6.42
2018-01-23T16:16:19.580Z,6.41
2018-01-23T16:18:45.331Z,6.43
2018-01-23T16:21:11.075Z,6.39
2018-01-23T16:23:36.839Z,6.43
2018-01-23T16:26:02.609Z,6.46
2018-01-23T16:28:28.363Z,6.44
2018-01-23T16:30:54.101Z,6.47
2018-01-23T16:33:19.863Z,6.47
2018-01-23T16:35:45.614Z,6.48
2018-01-23T16:38:11.364Z,6.48
2018-01-23T16:43:40.086Z,6.49
2018-01-23T16:46:05.843Z,6.48
2018-01-23T16:48:31.611Z,6.55
2018-01-23T16:50:57.382Z,6.56
2018-01-23T16:53:23.170Z,6.53
2018-01-23T16:55:48.944Z,6.51
2018-01-23T16:58:14.737Z,6.54
2018-01-23T17:00:40.528Z,6.54
2018-01-23T17:03:06.318Z,6.54
2018-01-23T17:05:32.078Z,6.52
2018-01-23T17:07:57.842Z,6.52
2018-01-23T17:10:23.614Z,6.50
2018-01-23T17:12:49.379Z,6.52
2018-01-23T17:15:15.164Z,6.55
2018-01-23T17:17:40.919Z,6.58
2018-01-23T17:20:06.714Z,6.56
2018-01-23T17:22:32.483Z,6.54
2018-01-23T17:24:58.267Z,6.55
2018-01-23T17:27:24.042Z,6.54
2018-01-23T17:29:49.834Z,6.57
2018-01-23T17:32:15.638Z,6.56
2018-01-23T17:34:41.394Z,6.54
2018-01-23T17:37:07.179Z,6.60
2018-01-23T17:39:32.955Z,6.63
2018-01-23T17:41:58.731Z,6.63
2018-01-23T17:44:24.502Z,6.59
2018-01-23T17:46:50.279Z,6.58
2018-01-23T17:49:16.051Z,6.65
2018-01-23T17:51:41.824Z,6.61
2018-01-23T17:54:07.596Z,6.58
2018-01-23T17:56:33.394Z,6.60
2018-01-23T17:58:59.159Z,6.61
2018-01-23T18:01:24.946Z,6.56
2018-01-23T18:03:50.720Z,6.55
2018-01-23T18:06:16.523Z,6.55
2018-01-23T18:08:42.289Z,6.58
2018-01-23T18:11:08.059Z,6.61
2018-01-23T18:13:33.829Z,6.55
2018-01-23T18:15:59.615Z,6.54
2018-01-23T18:18:25.388Z,6.56
2018-01-23T18:20:51.159Z,6.53
2018-01-23T18:23:16.942Z,6.52
2018-01-23T18:25:42.741Z,6.47
2018-01-23T18:28:08.495Z,6.46
2018-01-23T18:30:34.259Z,6.45
2018-01-23T18:33:00.040Z,6.40
2018-01-23T18:35:25.790Z,6.37
2018-01-23T18:37:51.550Z,6.34
2018-01-23T18:40:17.342Z,6.28
2018-01-23T18:42:43.270Z,6.33
2018-01-23T18:45:09.052Z,6.29
2018-01-23T18:47:34.834Z,6.25
2018-01-23T18:50:00.609Z,6.24
2018-01-23T18:52:26.382Z,6.24
2018-01-23T18:54:52.384Z,6.25
2018-01-23T18:57:18.224Z,6.23
2018-01-23T18:59:43.987Z,6.28
2018-01-23T19:02:09.755Z,6.29
2018-01-23T19:04:35.514Z,6.27
2018-01-23T19:07:01.286Z,6.27
2018-01-23T19:09:27.050Z,6.29
2018-01-23T19:11:52.843Z,6.26
2018-01-23T19:14:18.599Z,6.28
2018-01-23T19:16:44.365Z,6.30
2018-01-23T19:19:10.185Z,6.30
2018-01-23T19:21:35.974Z,6.28
2018-01-23T19:24:01.771Z,6.29
2018-01-23T19:26:27.563Z,6.31
2018-01-23T19:28:53.334Z,6.28
2018-01-23T19:31:19.094Z,6.24
2018-01-23T19:33:44.883Z,6.28
2018-01-23T19:36:10.655Z,6.27
2018-01-23T19:38:36.792Z,6.31
2018-01-23T19:41:02.587Z,6.28
2018-01-23T19:43:28.357Z,6.29
2018-01-23T19:45:54.942Z,6.30
2018-01-23T19:48:20.727Z,6.31
2018-01-23T19:50:46.487Z,6.29
2018-01-23T19:53:12.279Z,6.27
2018-01-23T19:55:38.528Z,6.32
2018-01-23T19:58:04.282Z,6.34
2018-01-23T20:00:30.062Z,6.37
2018-01-23T20:02:55.871Z,6.38
2018-01-23T20:05:21.628Z,6.37
2018-01-23T20:07:47.402Z,6.37
2018-01-23T20:10:13.196Z,6.39
2018-01-23T20:12:38.975Z,6.39
2018-01-23T20:15:04.780Z,6.37
2018-01-23T20:17:30.546Z,6.37
2018-01-23T20:19:56.332Z,6.38
2018-01-23T20:22:22.099Z,6.36
2018-01-23T20:24:47.930Z,6.36
2018-01-23T20:27:14.189Z,6.35
2018-01-23T20:29:40.011Z,6.39
2018-01-23T20:32:05.782Z,6.40
2018-01-23T20:34:31.679Z,6.40
2018-01-23T20:36:58.097Z,6.43
2018-01-23T20:39:23.923Z,6.40
2018-01-23T20:41:49.752Z,6.39
2018-01-23T20:44:15.564Z,6.40
2018-01-23T20:46:41.502Z,6.43
2018-01-23T20:49:07.259Z,6.46
2018-01-23T20:51:33.300Z,6.46
2018-01-23T20:53:59.065Z,6.52
2018-01-23T20:56:24.831Z,6.51
2018-01-23T20:58:50.588Z,6.51
2018-01-23T21:01:18.546Z,6.52
2018-01-23T21:03:44.306Z,6.50
2018-01-23T21:06:10.072Z,6.51
2018-01-23T21:08:35.859Z,6.55
2018-01-23T21:11:01.610Z,6.60
2018-01-23T21:13:27.370Z,6.62
2018-01-23T21:15:53.142Z,6.65
2018-01-23T21:18:18.951Z,6.69
2018-01-23T21:20:45.144Z,6.67
2018-01-23T21:23:10.955Z,6.69
2018-01-23T21:25:36.819Z,6.68
2018-01-23T21:28:02.793Z,6.70
2018-01-23T21:30:28.566Z,6.70
2018-01-23T21:32:54.447Z,6.69
2018-01-23T21:35:20.195Z,6.68
2018-01-23T21:37:45.967Z,6.70
2018-01-23T21:40:11.739Z,6.75
2018-01-23T21:42:37.518Z,6.75
2018-01-23T21:45:03.450Z,6.76
2018-01-23T21:47:29.227Z,6.77
2018-01-23T21:49:54.991Z,6.79
2018-01-23T21:52:20.791Z,6.85
2018-01-23T21:54:46.623Z,6.82
2018-01-23T21:57:12.407Z,6.87
2018-01-23T21:59:38.159Z,6.93
2018-01-23T22:02:03.930Z,6.92
2018-01-23T22:04:29.703Z,6.94
2018-01-23T22:06:55.474Z,6.98
2018-01-23T22:09:21.260Z,7.00
2018-01-23T22:11:47.026Z,7.02
2018-01-23T22:14:12.799Z,7.01
2018-01-23T22:16:38.571Z,7.03
2018-01-23T22:19:04.367Z,7.09
2018-01-23T22:21:30.107Z,7.10
2018-01-23T22:23:55.859Z,7.08
2018-01-23T22:26:21.708Z,7.11
2018-01-23T22:28:47.438Z,7.16
2018-01-23T22:31:13.446Z,7.16
2018-01-23T22:33:39.199Z,7.19
2018-01-23T22:36:05.213Z,7.20
2018-01-23T22:38:30.974Z,7.31
2018-01-23T22:40:56.920Z,7.26
2018-01-23T22:43:22.694Z,7.29
2018-01-23T22:45:49.055Z,7.34
2018-01-23T22:48:15.773Z,7.30
2018-01-23T22:50:41.562Z,7.45
2018-01-23T22:53:07.330Z,7.47
2018-01-23T22:55:33.107Z,7.47
2018-01-23T22:57:58.884Z,7.44
2018-01-23T23:00:24.659Z,7.48
2018-01-23T23:02:50.458Z,7.49
2018-01-23T23:05:16.222Z,7.51
2018-01-23T23:07:43.272Z,7.54
2018-01-23T23:10:09.027Z,7.50
2018-01-23T23:12:34.850Z,7.53
2018-01-23T23:15:00.622Z,7.54
2018-01-23T23:17:26.398Z,7.60
2018-01-23T23:19:52.147Z,7.58
2018-01-23T23:22:17.927Z,7.59
2018-01-23T23:24:43.680Z,7.64
2018-01-23T23:27:09.457Z,7.58
2018-01-23T23:29:35.230Z,7.59
2018-01-23T23:32:01.001Z,7.60
2018-01-23T23:34:26.778Z,7.63
2018-01-23T23:36:52.546Z,7.67
2018-01-23T23:39:18.323Z,7.69
2018-01-23T23:41:44.087Z,7.69
2018-01-23T23:44:09.874Z,7.68
2018-01-23T23:46:35.646Z,7.73
2018-01-23T23:49:01.428Z,7.74
2018-01-23T23:51:27.196Z,7.74
2018-01-23T23:53:52.962Z,7.77
2018-01-23T23:56:18.748Z,7.81
2018-01-23T23:58:44.524Z,7.82
